createdAt,value
2019-01-25T00:02:12.661Z,42.03
2019-01-25T00:04:40.972Z,43.03
2019-01-25T00:07:09.258Z,44.33
2019-01-25T00:09:37.618Z,43.60
2019-01-25T00:12:05.898Z,45.90
2019-01-25T00:14:34.195Z,41.43
2019-01-25T00:17:02.488Z,42.97
2019-01-25T00:19:30.850Z,42.00
2019-01-25T00:21:59.141Z,44.37
2019-01-25T00:24:27.476Z,41.73
2019-01-25T00:26:55.738Z,44.57
2019-01-25T00:29:24.036Z,44.23
2019-01-25T00:31:52.309Z,47.93
2019-01-25T00:34:20.606Z,40.13
2019-01-25T00:36:48.864Z,46.77
2019-01-25T00:39:17.128Z,47.90
2019-01-25T00:41:45.445Z,42.30
2019-01-25T00:44:13.716Z,48.93
2019-01-25T00:46:42.027Z,55.13
2019-01-25T00:49:10.366Z,47.63
2019-01-25T00:51:38.671Z,46.20
2019-01-25T00:54:07.006Z,49.27
2019-01-25T00:56:35.301Z,49.10
2019-01-25T00:59:03.566Z,55.17
2019-01-25T01:01:31.854Z,51.00
2019-01-25T01:04:00.122Z,53.43
2019-01-25T01:06:28.419Z,49.87
2019-01-25T01:08:56.694Z,55.30
2019-01-25T01:11:24.978Z,55.77
2019-01-25T01:13:53.259Z,53.53
2019-01-25T01:16:21.541Z,50.30
2019-01-25T01:18:49.827Z,55.00
2019-01-25T01:21:18.148Z,46.73
2019-01-25T01:23:46.498Z,45.60
2019-01-25T01:26:14.759Z,47.93
2019-01-25T01:28:43.053Z,52.20
2019-01-25T01:31:11.322Z,54.47
2019-01-25T01:33:39.616Z,53.47
2019-01-25T01:36:07.952Z,50.93
2019-01-25T01:38:36.237Z,43.07
2019-01-25T01:41:04.526Z,45.90
2019-01-25T01:43:32.875Z,43.73
2019-01-25T01:46:01.146Z,45.60
2019-01-25T01:48:29.507Z,44.53
2019-01-25T01:50:57.787Z,52.50
2019-01-25T01:53:26.067Z,49.47
2019-01-25T01:55:54.356Z,46.87
2019-01-25T01:58:22.653Z,46.27
2019-01-25T02:00:50.968Z,51.67
2019-01-25T02:03:19.365Z,51.67
2019-01-25T02:05:47.678Z,47.13
2019-01-25T02:08:15.976Z,43.07
2019-01-25T02:10:44.250Z,47.07
2019-01-25T02:13:12.541Z,48.97
2019-01-25T02:15:40.808Z,46.63
2019-01-25T02:18:09.093Z,55.97
2019-01-25T02:20:37.381Z,55.23
2019-01-25T02:23:05.647Z,53.83
2019-01-25T02:25:33.943Z,50.63
2019-01-25T02:28:02.188Z,50.33
2019-01-25T02:30:30.497Z,48.63
2019-01-25T02:32:58.824Z,52.10
2019-01-25T02:35:27.159Z,50.63
2019-01-25T02:37:55.429Z,53.40
2019-01-25T02:40:24.175Z,51.40
2019-01-25T02:42:52.551Z,53.53
2019-01-25T02:45:20.896Z,54.03
2019-01-25T02:47:49.193Z,47.33
2019-01-25T02:50:18.827Z,48.63
2019-01-25T02:52:47.161Z,56.67
2019-01-25T02:55:16.218Z,50.97
2019-01-25T02:57:44.588Z,50.47
2019-01-25T03:00:20.617Z,53.00
2019-01-25T03:02:49.032Z,54.00
2019-01-25T03:05:18.757Z,57.83
2019-01-25T03:07:47.038Z,52.63
2019-01-25T03:10:17.405Z,50.53
2019-01-25T03:12:45.713Z,56.70
2019-01-25T03:15:16.329Z,57.27
2019-01-25T03:17:44.604Z,50.77
2019-01-25T03:20:14.599Z,60.97
2019-01-25T03:22:42.913Z,59.77
2019-01-25T03:25:17.027Z,51.83
2019-01-25T03:27:45.446Z,58.27
2019-01-25T03:30:19.316Z,56.70
2019-01-25T03:32:47.694Z,57.23
2019-01-25T03:35:17.663Z,58.07
2019-01-25T03:37:45.952Z,57.13
2019-01-25T03:40:21.923Z,56.57
2019-01-25T03:42:50.194Z,58.63
2019-01-25T03:45:18.459Z,52.17
2019-01-25T03:47:46.749Z,62.03
2019-01-25T03:50:26.557Z,58.27
2019-01-25T03:52:54.943Z,63.30
2019-01-25T03:55:23.323Z,58.40
2019-01-25T03:57:51.645Z,59.03
2019-01-25T04:00:25.565Z,66.00
2019-01-25T04:02:53.857Z,57.70
2019-01-25T04:05:22.112Z,57.63
2019-01-25T04:07:50.423Z,61.00
2019-01-25T04:10:21.394Z,65.40
2019-01-25T04:12:49.693Z,57.63
2019-01-25T04:15:20.122Z,55.93
2019-01-25T04:17:48.483Z,67.27
2019-01-25T04:20:18.608Z,64.27
2019-01-25T04:22:46.918Z,62.63
2019-01-25T04:25:19.962Z,58.37
2019-01-25T04:27:48.226Z,62.53
2019-01-25T04:30:22.467Z,60.27
2019-01-25T04:32:50.725Z,59.10
2019-01-25T04:35:19.021Z,57.20
2019-01-25T04:37:47.874Z,62.50
2019-01-25T04:40:17.497Z,66.00
2019-01-25T04:42:45.763Z,61.10
2019-01-25T04:45:16.296Z,64.40
2019-01-25T04:47:44.553Z,62.30
2019-01-25T04:50:19.233Z,62.20
2019-01-25T04:52:47.761Z,61.40
2019-01-25T04:55:28.096Z,62.80
2019-01-25T04:58:01.498Z,59.67
2019-01-25T05:00:29.801Z,60.60
2019-01-25T05:03:00.487Z,66.97
2019-01-25T05:05:29.114Z,67.87
2019-01-25T05:08:06.422Z,66.30
2019-01-25T05:10:34.758Z,58.60
2019-01-25T05:13:03.033Z,68.43
2019-01-25T05:15:31.347Z,63.20
2019-01-25T05:17:59.694Z,58.97
2019-01-25T05:20:28.003Z,65.30
2019-01-25T05:22:57.994Z,64.37
2019-01-25T05:25:27.344Z,64.13
2019-01-25T05:27:55.698Z,61.20
2019-01-25T05:30:25.087Z,56.00
2019-01-25T05:32:53.371Z,67.93
2019-01-25T05:35:21.632Z,66.17
2019-01-25T05:37:49.906Z,64.83
2019-01-25T05:40:25.990Z,64.43
2019-01-25T05:42:54.368Z,61.23
2019-01-25T05:45:22.652Z,60.47
2019-01-25T05:47:50.941Z,68.50
2019-01-25T05:50:19.206Z,66.37
2019-01-25T05:52:47.496Z,65.90
2019-01-25T05:55:20.197Z,68.90
2019-01-25T05:57:48.511Z,61.73
2019-01-25T06:00:27.432Z,60.43
2019-01-25T06:02:55.765Z,54.23
2019-01-25T06:05:24.027Z,57.57
2019-01-25T06:07:52.355Z,53.80
2019-01-25T06:10:20.746Z,49.80
2019-01-25T06:12:52.294Z,54.63
2019-01-25T06:15:20.557Z,44.73
2019-01-25T06:17:48.826Z,51.07
2019-01-25T06:20:17.109Z,60.87
2019-01-25T06:22:45.421Z,55.47
2019-01-25T06:25:13.713Z,55.03
2019-01-25T06:27:42.048Z,52.73
2019-01-25T06:30:14.468Z,64.03
2019-01-25T06:32:42.742Z,49.63
2019-01-25T06:35:12.047Z,52.67
2019-01-25T06:37:40.323Z,52.63
2019-01-25T06:40:13.785Z,56.27
2019-01-25T06:42:42.067Z,48.50
2019-01-25T06:45:12.994Z,49.50
2019-01-25T06:47:41.276Z,52.03
2019-01-25T06:50:11.607Z,50.03
2019-01-25T06:52:39.891Z,50.57
2019-01-25T06:55:08.518Z,52.27
2019-01-25T06:57:41.128Z,50.37
2019-01-25T07:00:12.676Z,46.57
2019-01-25T07:02:40.932Z,44.93
2019-01-25T07:05:09.521Z,50.73
2019-01-25T07:07:39.069Z,49.17
2019-01-25T07:10:10.656Z,46.57
2019-01-25T07:12:38.920Z,44.97
2019-01-25T07:15:09.653Z,46.97
2019-01-25T07:17:37.919Z,51.33
2019-01-25T07:20:09.458Z,47.13
2019-01-25T07:22:37.737Z,47.00
2019-01-25T07:25:08.861Z,50.97
2019-01-25T07:27:37.119Z,47.43
2019-01-25T07:30:08.701Z,44.07
2019-01-25T07:32:36.968Z,48.87
2019-01-25T07:35:07.799Z,48.40
2019-01-25T07:37:36.192Z,47.90
2019-01-25T07:40:06.659Z,46.83
2019-01-25T07:42:34.934Z,44.77
2019-01-25T07:45:03.664Z,51.43
2019-01-25T07:47:32.832Z,47.00
2019-01-25T07:50:01.315Z,55.10
2019-01-25T07:52:29.597Z,44.53
2019-01-25T07:54:57.933Z,45.33
2019-01-25T07:57:26.309Z,48.90
2019-01-25T07:59:54.569Z,58.00
2019-01-25T08:02:22.917Z,55.90
2019-01-25T08:04:51.237Z,50.63
2019-01-25T08:07:19.533Z,49.30
2019-01-25T08:09:47.837Z,42.70
2019-01-25T08:12:16.185Z,46.70
2019-01-25T08:14:44.473Z,45.87
2019-01-25T08:17:12.811Z,49.13
2019-01-25T08:19:41.057Z,45.47
2019-01-25T08:22:09.328Z,47.67
2019-01-25T08:24:37.697Z,49.70
2019-01-25T08:27:06.103Z,49.93
2019-01-25T08:29:34.442Z,49.37
2019-01-25T08:32:03.761Z,46.23
2019-01-25T08:34:32.108Z,53.00
2019-01-25T08:37:00.379Z,45.10
2019-01-25T08:39:28.660Z,50.53
2019-01-25T08:41:57.022Z,48.93
2019-01-25T08:44:25.481Z,42.67
2019-01-25T08:46:53.772Z,47.00
2019-01-25T08:49:22.134Z,48.87
2019-01-25T08:51:50.480Z,45.43
2019-01-25T08:54:18.872Z,50.03
2019-01-25T08:56:47.192Z,47.00
2019-01-25T08:59:15.560Z,48.23
2019-01-25T09:01:43.892Z,45.43
2019-01-25T09:04:12.186Z,46.60
2019-01-25T09:06:40.481Z,51.17
2019-01-25T09:09:08.763Z,53.77
2019-01-25T09:11:37.075Z,48.10
2019-01-25T09:14:05.342Z,48.20
2019-01-25T09:16:33.679Z,51.00
2019-01-25T09:19:01.948Z,52.20
2019-01-25T09:21:30.236Z,43.93
2019-01-25T09:23:58.507Z,48.20
2019-01-25T09:26:26.792Z,48.07
2019-01-25T09:28:55.059Z,47.03
2019-01-25T09:31:23.388Z,47.10
2019-01-25T09:33:51.716Z,46.43
2019-01-25T09:36:20.026Z,46.20
2019-01-25T09:38:48.298Z,44.70
2019-01-25T09:41:16.597Z,44.67
2019-01-25T09:43:44.880Z,39.90
2019-01-25T09:46:13.170Z,39.00
2019-01-25T09:48:41.439Z,41.57
2019-01-25T09:51:09.747Z,41.70
2019-01-25T09:53:38.077Z,38.57
2019-01-25T09:56:06.391Z,40.20
2019-01-25T09:58:35.712Z,40.30
2019-01-25T10:01:05.909Z,41.07
2019-01-25T10:03:34.186Z,40.23
2019-01-25T10:06:05.317Z,45.97
2019-01-25T10:08:33.622Z,41.93
2019-01-25T10:11:01.913Z,44.17
2019-01-25T10:13:30.178Z,37.17
2019-01-25T10:15:58.623Z,36.43
2019-01-25T10:18:26.900Z,45.30
2019-01-25T10:20:55.187Z,45.60
2019-01-25T10:23:23.473Z,40.67
2019-01-25T10:25:51.723Z,46.10
2019-01-25T10:28:20.041Z,45.43
2019-01-25T10:30:48.294Z,44.83
2019-01-25T10:33:16.598Z,40.87
2019-01-25T10:35:44.945Z,45.80
2019-01-25T10:38:13.237Z,43.60
2019-01-25T10:40:41.517Z,41.47
2019-01-25T10:43:09.878Z,36.50
2019-01-25T10:45:41.002Z,49.70
2019-01-25T10:48:09.357Z,39.43
2019-01-25T10:50:37.637Z,43.20
2019-01-25T10:53:07.167Z,39.30
2019-01-25T10:55:35.451Z,40.37
2019-01-25T10:58:04.178Z,44.47
2019-01-25T11:00:32.502Z,44.40
2019-01-25T11:03:00.801Z,50.20
2019-01-25T11:05:29.736Z,37.53
2019-01-25T11:07:58.117Z,40.97
2019-01-25T11:10:26.453Z,41.70
2019-01-25T11:13:00.773Z,36.93
2019-01-25T11:15:25.488Z,37.47
2019-01-25T11:17:53.762Z,42.00
2019-01-25T11:20:23.806Z,36.93
2019-01-25T11:22:52.411Z,38.20
2019-01-25T11:25:23.953Z,41.00
2019-01-25T11:27:52.218Z,47.13
2019-01-25T11:30:20.536Z,39.30
2019-01-25T11:32:48.862Z,49.13
2019-01-25T11:35:17.213Z,37.67
2019-01-25T11:37:45.473Z,30.27
2019-01-25T11:40:19.285Z,43.50
2019-01-25T11:42:47.554Z,38.93
2019-01-25T11:45:15.858Z,30.30
2019-01-25T11:47:44.181Z,30.73
2019-01-25T11:50:15.203Z,28.17
2019-01-25T11:52:43.472Z,33.63
2019-01-25T11:55:12.601Z,36.70
2019-01-25T11:57:40.873Z,28.33
2019-01-25T12:00:15.229Z,29.00
2019-01-25T12:02:43.487Z,28.43
2019-01-25T12:05:14.628Z,26.50
2019-01-25T12:07:42.903Z,29.73
2019-01-25T12:10:14.340Z,29.50
2019-01-25T12:12:42.622Z,25.83
2019-01-25T12:15:15.637Z,23.90
2019-01-25T12:17:43.963Z,30.83
2019-01-25T12:20:18.331Z,32.03
2019-01-25T12:22:46.615Z,27.87
2019-01-25T12:25:14.907Z,37.80
2019-01-25T12:27:43.221Z,33.00
2019-01-25T12:30:14.874Z,31.23
2019-01-25T12:32:43.198Z,29.50
2019-01-25T12:35:12.598Z,28.07
2019-01-25T12:37:40.891Z,35.23
2019-01-25T12:40:12.412Z,28.23
2019-01-25T12:42:40.794Z,28.07
2019-01-25T12:45:12.391Z,28.93
2019-01-25T12:47:40.752Z,32.00
2019-01-25T12:50:14.873Z,26.50
2019-01-25T12:52:43.257Z,25.03
2019-01-25T12:55:11.521Z,26.23
2019-01-25T12:57:39.804Z,26.77
2019-01-25T13:00:11.433Z,25.63
2019-01-25T13:02:39.788Z,27.97
2019-01-25T13:05:11.324Z,26.63
2019-01-25T13:07:39.639Z,30.87
2019-01-25T13:10:10.901Z,26.23
2019-01-25T13:12:39.256Z,31.00
2019-01-25T13:15:09.464Z,33.13
2019-01-25T13:17:37.754Z,31.00
2019-01-25T13:20:15.138Z,33.83
2019-01-25T13:22:43.452Z,33.50
2019-01-25T13:25:11.740Z,32.17
2019-01-25T13:27:40.078Z,30.80
2019-01-25T13:30:11.707Z,34.37
2019-01-25T13:32:40.049Z,29.80
2019-01-25T13:35:10.020Z,33.43
2019-01-25T13:37:38.396Z,32.13
2019-01-25T13:40:09.996Z,29.63
2019-01-25T13:42:38.272Z,30.07
2019-01-25T13:45:09.683Z,32.73
2019-01-25T13:47:37.948Z,36.50
2019-01-25T13:50:09.636Z,39.13
2019-01-25T13:52:37.899Z,37.10
2019-01-25T13:55:09.152Z,40.30
2019-01-25T13:57:37.498Z,38.77
2019-01-25T14:00:09.130Z,38.43
2019-01-25T14:02:37.388Z,46.53
2019-01-25T14:05:08.051Z,41.40
2019-01-25T14:07:36.413Z,44.60
2019-01-25T14:10:07.992Z,43.83
2019-01-25T14:12:36.273Z,46.53
2019-01-25T14:15:07.002Z,49.77
2019-01-25T14:17:35.258Z,48.20
2019-01-25T14:20:07.075Z,47.27
2019-01-25T14:22:35.431Z,48.23
2019-01-25T14:25:04.582Z,49.77
2019-01-25T14:27:32.927Z,48.80
2019-01-25T14:30:01.241Z,54.83
2019-01-25T14:32:29.533Z,53.33
2019-01-25T14:34:57.910Z,58.73
2019-01-25T14:37:26.184Z,49.27
2019-01-25T14:39:54.468Z,53.77
2019-01-25T14:42:22.784Z,52.43
2019-01-25T14:44:51.074Z,53.57
2019-01-25T14:47:19.362Z,55.87
2019-01-25T14:49:47.622Z,54.83
2019-01-25T14:52:15.927Z,61.47
2019-01-25T14:54:44.182Z,46.20
2019-01-25T14:57:12.569Z,54.43
2019-01-25T14:59:40.853Z,38.87
2019-01-25T15:02:09.190Z,42.93
2019-01-25T15:04:37.469Z,43.13
2019-01-25T15:07:05.843Z,41.17
2019-01-25T15:09:34.199Z,35.17
2019-01-25T15:12:02.487Z,40.90
2019-01-25T15:14:30.778Z,39.53
2019-01-25T15:16:59.247Z,42.87
2019-01-25T15:19:27.505Z,42.77
2019-01-25T15:21:55.859Z,38.33
2019-01-25T15:24:24.205Z,45.23
2019-01-25T15:26:52.556Z,36.73
2019-01-25T15:29:20.895Z,40.60
2019-01-25T15:31:49.182Z,37.17
2019-01-25T15:34:17.557Z,37.37
2019-01-25T15:36:45.837Z,38.03
2019-01-25T15:39:14.203Z,38.03
2019-01-25T15:41:42.464Z,38.07
2019-01-25T15:44:10.852Z,40.57
2019-01-25T15:46:39.170Z,35.03
2019-01-25T15:49:07.458Z,39.03
2019-01-25T15:51:35.759Z,43.90
2019-01-25T15:54:04.149Z,41.77
2019-01-25T15:56:32.422Z,36.00
2019-01-25T15:59:00.707Z,42.50
2019-01-25T16:01:29.052Z,41.73
2019-01-25T16:03:57.432Z,38.70
2019-01-25T16:06:25.746Z,40.77
2019-01-25T16:08:54.033Z,37.30
2019-01-25T16:11:22.324Z,45.33
2019-01-25T16:13:50.609Z,37.90
2019-01-25T16:16:18.975Z,40.87
2019-01-25T16:18:47.271Z,39.50
2019-01-25T16:21:15.528Z,40.60
2019-01-25T16:23:43.788Z,40.40
2019-01-25T16:26:12.093Z,42.93
2019-01-25T16:28:40.383Z,43.53
2019-01-25T16:31:08.754Z,38.03
2019-01-25T16:33:37.027Z,45.67
2019-01-25T16:36:05.392Z,45.40
2019-01-25T16:38:33.669Z,50.70
2019-01-25T16:41:02.076Z,43.83
2019-01-25T16:43:30.412Z,39.70
2019-01-25T16:45:58.722Z,51.57
2019-01-25T16:48:27.016Z,45.70
2019-01-25T16:50:55.334Z,54.70
2019-01-25T16:53:23.722Z,51.17
2019-01-25T16:55:52.054Z,58.90
2019-01-25T16:58:20.473Z,53.57
2019-01-25T17:00:48.838Z,64.53
2019-01-25T17:03:17.080Z,51.63
2019-01-25T17:05:45.487Z,52.30
2019-01-25T17:08:13.818Z,52.10
2019-01-25T17:10:42.197Z,54.70
2019-01-25T17:13:10.521Z,46.63
2019-01-25T17:15:38.903Z,48.13
2019-01-25T17:18:07.182Z,40.17
2019-01-25T17:20:35.452Z,42.63
2019-01-25T17:23:04.861Z,41.63
2019-01-25T17:25:33.223Z,44.43
2019-01-25T17:28:01.509Z,48.80
2019-01-25T17:30:34.608Z,39.23
2019-01-25T17:33:03.016Z,45.03
2019-01-25T17:35:32.003Z,45.13
2019-01-25T17:38:00.571Z,39.70
2019-01-25T17:40:37.673Z,43.13
2019-01-25T17:43:06.053Z,48.97
2019-01-25T17:45:34.377Z,43.67
2019-01-25T17:48:02.777Z,41.00
2019-01-25T17:50:31.053Z,45.40
2019-01-25T17:52:59.377Z,37.60
2019-01-25T17:55:27.693Z,44.13
2019-01-25T17:57:56.034Z,36.87
2019-01-25T18:00:28.169Z,38.53
2019-01-25T18:02:56.595Z,38.90
2019-01-25T18:05:24.944Z,44.73
2019-01-25T18:07:53.276Z,39.33
2019-01-25T18:10:23.640Z,39.70
2019-01-25T18:12:52.011Z,47.20
2019-01-25T18:15:20.322Z,50.73
2019-01-25T18:17:48.577Z,42.13
2019-01-25T18:20:21.287Z,39.60
2019-01-25T18:22:49.559Z,41.97
2019-01-25T18:25:29.852Z,39.40
2019-01-25T18:28:01.359Z,34.03
2019-01-25T18:30:53.863Z,35.20
2019-01-25T18:33:22.237Z,29.23
2019-01-25T18:35:50.523Z,33.27
2019-01-25T18:38:18.817Z,31.67
2019-01-25T18:40:47.084Z,28.30
2019-01-25T18:43:15.350Z,26.93
2019-01-25T18:45:43.808Z,34.73
2019-01-25T18:48:12.079Z,31.23
2019-01-25T18:50:40.377Z,29.03
2019-01-25T18:53:08.682Z,26.37
2019-01-25T18:55:36.961Z,27.40
2019-01-25T18:58:05.272Z,26.20
2019-01-25T19:00:33.703Z,37.97
2019-01-25T19:03:02.068Z,29.83
2019-01-25T19:05:30.414Z,29.87
2019-01-25T19:07:58.728Z,29.67
2019-01-25T19:10:30.278Z,30.05
2019-01-25T19:12:58.575Z,24.63
2019-01-25T19:15:31.032Z,21.40
2019-01-25T19:17:59.328Z,29.40
2019-01-25T19:20:27.628Z,22.30
2019-01-25T19:22:55.927Z,30.73
2019-01-25T19:25:24.293Z,25.83
2019-01-25T19:27:52.633Z,22.23
2019-01-25T19:30:24.190Z,26.93
2019-01-25T19:32:52.497Z,22.27
2019-01-25T19:35:20.779Z,24.50
2019-01-25T19:37:49.152Z,26.40
2019-01-25T19:40:23.448Z,26.50
2019-01-25T19:42:51.733Z,23.07
2019-01-25T19:45:20.102Z,19.07
2019-01-25T19:47:48.476Z,21.87
2019-01-25T19:50:18.779Z,28.40
2019-01-25T19:52:47.169Z,20.13
2019-01-25T19:55:19.449Z,25.27
2019-01-25T19:57:49.171Z,20.47
2019-01-25T20:00:20.578Z,18.37
2019-01-25T20:02:48.874Z,22.57
2019-01-25T20:05:20.072Z,21.27
2019-01-25T20:07:48.894Z,19.43
2019-01-25T20:10:17.584Z,20.73
2019-01-25T20:12:45.957Z,20.50
2019-01-25T20:15:19.500Z,23.30
2019-01-25T20:17:46.868Z,16.87
2019-01-25T20:20:29.163Z,18.23
2019-01-25T20:22:57.507Z,16.53
2019-01-25T20:25:25.895Z,17.00
2019-01-25T20:27:54.168Z,18.23
2019-01-25T20:30:32.963Z,20.37
2019-01-25T20:33:02.664Z,17.60
2019-01-25T20:35:32.975Z,18.33
2019-01-25T20:38:01.235Z,18.27
2019-01-25T20:40:29.615Z,20.23
2019-01-25T20:42:57.889Z,19.77
2019-01-25T20:45:35.277Z,18.53
2019-01-25T20:48:03.527Z,18.40
2019-01-25T20:50:33.662Z,17.80
2019-01-25T20:53:01.930Z,18.20
2019-01-25T20:55:30.249Z,14.50
2019-01-25T20:57:59.153Z,16.60
2019-01-25T21:00:32.016Z,16.03
2019-01-25T21:03:00.571Z,17.80
2019-01-25T21:05:28.887Z,16.63
2019-01-25T21:07:57.143Z,15.10
2019-01-25T21:10:26.035Z,15.23
2019-01-25T21:12:54.484Z,17.23
2019-01-25T21:15:24.807Z,18.13
2019-01-25T21:17:53.272Z,14.27
2019-01-25T21:20:24.337Z,11.47
2019-01-25T21:22:52.636Z,15.03
2019-01-25T21:25:20.893Z,18.47
2019-01-25T21:27:49.266Z,14.97
2019-01-25T21:30:20.763Z,14.43
2019-01-25T21:32:49.100Z,13.80
2019-01-25T21:35:17.377Z,13.80
2019-01-25T21:37:45.687Z,15.17
2019-01-25T21:40:16.384Z,14.10
2019-01-25T21:42:44.677Z,14.07
2019-01-25T21:45:15.699Z,16.57
2019-01-25T21:47:43.997Z,12.47
2019-01-25T21:50:15.323Z,10.27
2019-01-25T21:52:43.707Z,11.43
2019-01-25T21:55:14.286Z,9.73
2019-01-25T21:57:42.591Z,9.00
2019-01-25T22:00:14.177Z,13.00
2019-01-25T22:02:42.465Z,12.07
2019-01-25T22:05:10.836Z,10.67
2019-01-25T22:07:39.245Z,9.03
2019-01-25T22:10:10.811Z,9.20
2019-01-25T22:12:39.222Z,7.20
2019-01-25T22:15:10.590Z,5.63
2019-01-25T22:17:38.834Z,7.77
2019-01-25T22:20:16.279Z,6.77
2019-01-25T22:22:44.541Z,6.47
2019-01-25T22:25:13.167Z,7.43
2019-01-25T22:27:41.597Z,8.97
2019-01-25T22:30:15.518Z,5.70
2019-01-25T22:32:43.830Z,4.77
2019-01-25T22:35:12.102Z,5.60
2019-01-25T22:37:40.345Z,6.80
2019-01-25T22:40:14.308Z,5.63
2019-01-25T22:42:42.579Z,6.23
2019-01-25T22:45:13.880Z,7.63
2019-01-25T22:47:42.157Z,6.23
2019-01-25T22:50:13.685Z,6.13
2019-01-25T22:52:41.965Z,7.57
2019-01-25T22:55:12.981Z,5.87
2019-01-25T22:57:41.289Z,5.93
2019-01-25T23:00:12.839Z,6.20
2019-01-25T23:02:41.158Z,5.23
2019-01-25T23:05:15.682Z,5.60
2019-01-25T23:07:43.938Z,7.70
2019-01-25T23:10:12.278Z,4.17
2019-01-25T23:12:40.639Z,8.63
2019-01-25T23:15:09.635Z,6.57
2019-01-25T23:17:37.925Z,6.63
2019-01-25T23:22:37.260Z,4.97
2019-01-25T23:25:07.059Z,4.87
2019-01-25T23:27:35.329Z,4.93
2019-01-25T23:30:05.273Z,5.00
2019-01-25T23:32:33.561Z,4.63
2019-01-25T23:35:01.917Z,5.90
2019-01-25T23:37:30.206Z,6.93
2019-01-25T23:39:58.479Z,4.43
2019-01-25T23:42:26.847Z,3.40
2019-01-25T23:44:55.123Z,2.93
2019-01-25T23:47:23.462Z,5.40
2019-01-25T23:49:51.702Z,3.70
2019-01-25T23:52:19.998Z,3.33
2019-01-25T23:54:48.267Z,3.70
2019-01-25T23:57:16.557Z,4.03
2019-01-25T23:59:44.842Z,3.23
